Terminal Aerodrome Forecast
Issued by NWS Upton, NY

Home | Current Version | Previous Version | Text Only | Print | Product List | Glossary On
Versions: 1 2 3 4 5 6 7 8 9 10 11 12 13 14 15 16 17 18 19 20 21 22 23 24 25 26 27 28 29 30 31
000
FTUS41 KOKX 011400 AAB
TAFJFK
TAF AMD
KJFK 011456Z 0115/0218 19006KT P6SM SCT008 SCT040
     FM011600 18010KT P6SM FEW010 SCT025 BKN040
      TEMPO 0117/0121 SHRA
     FM020100 21007KT 6SM BR SCT025 SCT040
     FM020700 VRB03KT 6SM BR SCT020 SCT040
     FM021500 23007KT P6SM SCT050=

USA.gov is the U.S. government's official web portal to all federal, state and local government web resources and services.